createdAt,value
2019-01-19T00:00:20.384Z,1013.54
2019-01-19T00:01:01.034Z,1013.51
2019-01-19T00:01:41.640Z,1013.53
2019-01-19T00:02:22.304Z,1013.53
2019-01-19T00:03:02.944Z,1013.52
2019-01-19T00:03:43.589Z,1013.54
2019-01-19T00:04:24.285Z,1013.5
2019-01-19T00:05:10.324Z,1013.49
2019-01-19T00:05:45.526Z,1013.49
2019-01-19T00:06:26.325Z,1013.49
2019-01-19T00:07:06.936Z,1013.47
2019-01-19T00:07:47.552Z,1013.47
2019-01-19T00:08:28.224Z,1013.44
2019-01-19T00:09:08.832Z,1013.47
2019-01-19T00:09:49.438Z,1013.45
2019-01-19T00:10:30.268Z,1013.41
2019-01-19T00:11:10.858Z,1013.39
2019-01-19T00:11:51.576Z,1013.39
2019-01-19T00:12:32.187Z,1013.39
2019-01-19T00:13:12.852Z,1013.42
2019-01-19T00:13:53.476Z,1013.38
2019-01-19T00:14:34.282Z,1013.39
2019-01-19T00:15:14.914Z,1013.37
2019-01-19T00:15:55.530Z,1013.35
2019-01-19T00:16:36.142Z,1013.32
2019-01-19T00:17:16.783Z,1013.29
2019-01-19T00:17:57.514Z,1013.3
2019-01-19T00:18:38.192Z,1013.28
2019-01-19T00:19:18.794Z,1013.26
2019-01-19T00:19:59.453Z,1013.25
2019-01-19T00:20:40.110Z,1013.25
2019-01-19T00:21:20.778Z,1013.21
2019-01-19T00:22:01.438Z,1013.24
2019-01-19T00:22:42.275Z,1013.23
2019-01-19T00:23:23.155Z,1013.22
2019-01-19T00:24:03.668Z,1013.2
2019-01-19T00:24:44.321Z,1013.23
2019-01-19T00:25:25.002Z,1013.22
2019-01-19T00:26:05.614Z,1013.18
2019-01-19T00:26:46.230Z,1013.2
2019-01-19T00:27:26.834Z,1013.2
2019-01-19T00:28:07.444Z,1013.2
2019-01-19T00:28:48.106Z,1013.16
2019-01-19T00:29:29.278Z,1013.15
2019-01-19T00:30:09.918Z,1013.16
2019-01-19T00:30:50.596Z,1013.15
2019-01-19T00:31:31.183Z,1013.13
2019-01-19T00:32:11.809Z,1013.18
2019-01-19T00:32:52.446Z,1013.16
2019-01-19T00:33:33.222Z,1013.16
2019-01-19T00:34:13.839Z,1013.13
2019-01-19T00:34:54.467Z,1013.11
2019-01-19T00:35:35.082Z,1013.1
2019-01-19T00:36:15.750Z,1013.09
2019-01-19T00:36:56.390Z,1013.1
2019-01-19T00:37:36.993Z,1013.09
2019-01-19T00:38:17.654Z,1013.06
2019-01-19T00:38:58.326Z,1013.05
2019-01-19T00:39:38.924Z,1013.01
2019-01-19T00:40:19.740Z,1013.02
2019-01-19T00:41:00.280Z,1013.01
2019-01-19T00:41:40.912Z,1013
2019-01-19T00:42:21.534Z,1013
2019-01-19T00:43:02.222Z,1013
2019-01-19T00:43:42.822Z,1013.03
2019-01-19T00:44:23.548Z,1013.02
2019-01-19T00:45:04.171Z,1013.03
2019-01-19T00:45:44.784Z,1013
2019-01-19T00:46:25.398Z,1013.03
2019-01-19T00:47:06.022Z,1013
2019-01-19T00:47:46.644Z,1013.01
2019-01-19T00:48:27.574Z,1013
2019-01-19T00:49:08.014Z,1012.98
2019-01-19T00:49:48.632Z,1012.95
2019-01-19T00:50:29.279Z,1012.94
2019-01-19T00:51:09.893Z,1012.93
2019-01-19T00:51:50.527Z,1012.93
2019-01-19T00:52:31.172Z,1012.92
2019-01-19T00:53:11.806Z,1012.9
2019-01-19T00:53:52.443Z,1012.9
2019-01-19T00:54:33.062Z,1012.92
2019-01-19T00:55:13.728Z,1012.9
2019-01-19T00:55:54.342Z,1012.86
2019-01-19T00:56:34.976Z,1012.88
2019-01-19T00:57:15.604Z,1012.86
2019-01-19T00:57:56.261Z,1012.89
2019-01-19T00:58:36.992Z,1012.88
2019-01-19T00:59:17.820Z,1012.85
2019-01-19T00:59:58.512Z,1012.86
2019-01-19T01:00:39.123Z,1012.84
2019-01-19T01:01:19.764Z,1012.83
2019-01-19T01:02:00.439Z,1012.85
2019-01-19T01:02:41.092Z,1012.86
2019-01-19T01:03:21.724Z,1012.86
2019-01-19T01:04:02.342Z,1012.84
2019-01-19T01:06:33.570Z,1012.83
2019-01-19T01:07:14.234Z,1012.83
2019-01-19T01:07:54.878Z,1012.8
2019-01-19T01:08:35.539Z,1012.8
2019-01-19T01:09:16.114Z,1012.8
2019-01-19T01:09:56.744Z,1012.78
2019-01-19T01:10:37.346Z,1012.75
2019-01-19T01:11:18.050Z,1012.73
2019-01-19T01:11:58.684Z,1012.73
2019-01-19T01:12:39.286Z,1012.78
2019-01-19T01:13:19.900Z,1012.75
2019-01-19T01:14:00.546Z,1012.78
2019-01-19T01:14:41.168Z,1012.76
2019-01-19T01:15:21.773Z,1012.79
2019-01-19T01:16:02.476Z,1012.77
2019-01-19T01:16:43.090Z,1012.74
2019-01-19T01:17:23.700Z,1012.76
2019-01-19T01:18:04.300Z,1012.77
2019-01-19T01:18:44.926Z,1012.76
2019-01-19T01:19:25.535Z,1012.75
2019-01-19T01:20:06.188Z,1012.79
2019-01-19T01:20:46.814Z,1012.78
2019-01-19T01:21:27.520Z,1012.76
2019-01-19T01:22:08.150Z,1012.78
2019-01-19T01:22:48.762Z,1012.74
2019-01-19T01:23:29.414Z,1012.74
2019-01-19T01:24:10.010Z,1012.72
2019-01-19T01:24:50.647Z,1012.73
2019-01-19T01:25:31.300Z,1012.71
2019-01-19T01:26:11.910Z,1012.74
2019-01-19T01:26:52.548Z,1012.74
2019-01-19T01:27:33.184Z,1012.73
2019-01-19T01:28:13.832Z,1012.7
2019-01-19T01:28:54.471Z,1012.69
2019-01-19T01:29:35.110Z,1012.7
2019-01-19T01:30:15.727Z,1012.7
2019-01-19T01:30:56.338Z,1012.71
2019-01-19T01:31:36.946Z,1012.72
2019-01-19T01:32:17.580Z,1012.7
2019-01-19T01:32:58.184Z,1012.7
2019-01-19T01:33:38.854Z,1012.72
2019-01-19T01:34:19.450Z,1012.74
2019-01-19T01:35:00.178Z,1012.72
2019-01-19T01:35:40.699Z,1012.69
2019-01-19T01:36:21.310Z,1012.72
2019-01-19T01:37:01.949Z,1012.72
2019-01-19T01:37:42.563Z,1012.68
2019-01-19T01:38:23.188Z,1012.68
2019-01-19T01:39:03.796Z,1012.7
2019-01-19T01:39:44.402Z,1012.69
2019-01-19T01:40:25.012Z,1012.67
2019-01-19T01:41:05.624Z,1012.71
2019-01-19T01:41:46.238Z,1012.65
2019-01-19T01:42:26.876Z,1012.64
2019-01-19T01:43:07.474Z,1012.67
2019-01-19T01:43:48.077Z,1012.69
2019-01-19T01:44:28.740Z,1012.7
2019-01-19T01:45:09.361Z,1012.69
2019-01-19T01:45:49.982Z,1012.67
2019-01-19T01:46:30.641Z,1012.67
2019-01-19T01:47:11.231Z,1012.66
2019-01-19T01:47:51.867Z,1012.67
2019-01-19T01:48:32.510Z,1012.62
2019-01-19T01:49:13.145Z,1012.63
2019-01-19T01:49:53.743Z,1012.64
2019-01-19T01:50:34.390Z,1012.68
2019-01-19T01:51:14.974Z,1012.63
2019-01-19T01:51:55.604Z,1012.62
2019-01-19T01:52:36.207Z,1012.64
2019-01-19T01:53:16.819Z,1012.65
2019-01-19T01:53:57.439Z,1012.64
2019-01-19T01:54:38.092Z,1012.66
2019-01-19T01:55:18.724Z,1012.69
2019-01-19T01:55:59.382Z,1012.7
2019-01-19T01:56:39.980Z,1012.7
2019-01-19T01:57:20.579Z,1012.71
2019-01-19T01:58:01.171Z,1012.7
2019-01-19T01:58:41.822Z,1012.73
2019-01-19T01:59:22.467Z,1012.71
2019-01-19T02:00:03.115Z,1012.68
2019-01-19T02:00:43.727Z,1012.73
2019-01-19T02:01:24.339Z,1012.73
2019-01-19T02:02:04.950Z,1012.73
2019-01-19T02:02:45.590Z,1012.68
2019-01-19T02:03:26.215Z,1012.69
2019-01-19T02:04:06.847Z,1012.74
2019-01-19T02:04:47.496Z,1012.72
2019-01-19T02:05:28.161Z,1012.7
2019-01-19T02:06:08.793Z,1012.7
2019-01-19T02:06:49.423Z,1012.71
2019-01-19T02:07:30.055Z,1012.73
2019-01-19T02:08:10.716Z,1012.73
2019-01-19T02:08:51.347Z,1012.72
2019-01-19T02:09:31.958Z,1012.71
2019-01-19T02:10:12.564Z,1012.7
2019-01-19T02:10:53.184Z,1012.69
2019-01-19T02:11:33.803Z,1012.73
2019-01-19T02:12:14.410Z,1012.67
2019-01-19T02:12:55.058Z,1012.65
2019-01-19T02:13:35.662Z,1012.66
2019-01-19T02:14:16.325Z,1012.67
2019-01-19T02:14:56.940Z,1012.66
2019-01-19T02:15:37.575Z,1012.64
2019-01-19T02:16:18.193Z,1012.67
2019-01-19T02:16:58.813Z,1012.66
2019-01-19T02:17:39.431Z,1012.64
2019-01-19T02:18:20.061Z,1012.64
2019-01-19T02:19:00.715Z,1012.6
2019-01-19T02:19:41.323Z,1012.61
2019-01-19T02:20:21.943Z,1012.62
2019-01-19T02:21:02.579Z,1012.59
2019-01-19T02:21:43.207Z,1012.6
2019-01-19T02:22:23.861Z,1012.57
2019-01-19T02:23:04.480Z,1012.59
2019-01-19T02:23:45.068Z,1012.61
2019-01-19T02:24:25.670Z,1012.62
2019-01-19T02:25:06.306Z,1012.6
2019-01-19T02:25:46.933Z,1012.6
2019-01-19T02:26:27.555Z,1012.64
2019-01-19T02:27:08.198Z,1012.62
2019-01-19T02:27:48.820Z,1012.64
2019-01-19T02:28:29.419Z,1012.6
2019-01-19T02:29:10.032Z,1012.62
2019-01-19T02:29:50.655Z,1012.62
2019-01-19T02:30:31.254Z,1012.6
2019-01-19T02:31:11.866Z,1012.63
2019-01-19T02:31:52.505Z,1012.61
2019-01-19T02:32:33.105Z,1012.62
2019-01-19T02:33:13.729Z,1012.59
2019-01-19T02:33:54.330Z,1012.55
2019-01-19T02:34:34.945Z,1012.55
2019-01-19T02:35:15.556Z,1012.59
2019-01-19T02:35:56.147Z,1012.55
2019-01-19T02:36:36.759Z,1012.58
2019-01-19T02:37:17.379Z,1012.57
2019-01-19T02:37:57.989Z,1012.57
2019-01-19T02:38:38.618Z,1012.56
2019-01-19T02:39:19.252Z,1012.57
2019-01-19T02:39:59.866Z,1012.55
2019-01-19T02:40:40.495Z,1012.57
2019-01-19T02:41:21.165Z,1012.61
2019-01-19T02:42:01.747Z,1012.57
2019-01-19T02:42:42.381Z,1012.6
2019-01-19T02:43:23.009Z,1012.58
2019-01-19T02:44:03.639Z,1012.58
2019-01-19T02:44:44.297Z,1012.57
2019-01-19T02:45:24.940Z,1012.54
2019-01-19T02:46:05.543Z,1012.52
2019-01-19T02:46:46.147Z,1012.54
2019-01-19T02:47:26.752Z,1012.53
2019-01-19T02:48:07.371Z,1012.5
2019-01-19T02:48:47.974Z,1012.48
2019-01-19T02:49:28.617Z,1012.47
2019-01-19T02:50:09.219Z,1012.48
2019-01-19T02:50:50.061Z,1012.44
2019-01-19T02:51:30.657Z,1012.43
2019-01-19T02:52:11.275Z,1012.44
2019-01-19T02:52:51.889Z,1012.39
2019-01-19T02:53:32.515Z,1012.42
2019-01-19T02:54:13.173Z,1012.41
2019-01-19T02:54:53.846Z,1012.41
2019-01-19T02:55:34.487Z,1012.39
2019-01-19T02:56:15.149Z,1012.35
2019-01-19T02:56:55.999Z,1012.36
2019-01-19T02:57:36.784Z,1012.31
2019-01-19T02:58:17.471Z,1012.29
2019-01-19T02:58:58.039Z,1012.28
2019-01-19T02:59:38.678Z,1012.3
2019-01-19T03:00:19.295Z,1012.26
2019-01-19T03:00:59.905Z,1012.29
2019-01-19T03:01:40.529Z,1012.28
2019-01-19T03:02:21.133Z,1012.28
2019-01-19T03:03:01.772Z,1012.28
2019-01-19T03:03:42.383Z,1012.25
2019-01-19T03:04:22.990Z,1012.23
2019-01-19T03:05:03.578Z,1012.22
2019-01-19T03:05:44.190Z,1012.25
2019-01-19T03:06:24.810Z,1012.24
2019-01-19T03:07:05.419Z,1012.25
2019-01-19T03:07:46.017Z,1012.27
2019-01-19T03:08:26.628Z,1012.26
2019-01-19T03:09:07.261Z,1012.25
2019-01-19T03:09:47.898Z,1012.27
2019-01-19T03:10:28.503Z,1012.22
2019-01-19T03:11:09.101Z,1012.22
2019-01-19T03:11:49.705Z,1012.2
2019-01-19T03:12:30.363Z,1012.18
2019-01-19T03:13:10.975Z,1012.19
2019-01-19T03:13:51.597Z,1012.21
2019-01-19T03:14:32.233Z,1012.17
2019-01-19T03:15:12.841Z,1012.18
2019-01-19T03:15:53.455Z,1012.18
2019-01-19T03:16:34.063Z,1012.18
2019-01-19T03:17:14.728Z,1012.21
2019-01-19T03:17:55.337Z,1012.15
2019-01-19T03:18:35.984Z,1012.17
2019-01-19T03:19:16.605Z,1012.16
2019-01-19T03:19:57.221Z,1012.16
2019-01-19T03:20:37.855Z,1012.13
2019-01-19T03:21:18.472Z,1012.13
2019-01-19T03:21:59.081Z,1012.09
2019-01-19T03:22:39.730Z,1012.11
2019-01-19T03:23:20.378Z,1012.08
2019-01-19T03:24:00.936Z,1012.09
2019-01-19T03:24:41.565Z,1012.08
2019-01-19T03:25:22.185Z,1012.1
2019-01-19T03:26:02.815Z,1012.09
2019-01-19T03:26:43.451Z,1012.12
2019-01-19T03:27:24.079Z,1012.09
2019-01-19T03:28:04.691Z,1012.09
2019-01-19T03:28:45.302Z,1012.09
2019-01-19T03:29:25.930Z,1012.07
2019-01-19T03:30:06.548Z,1012.07
2019-01-19T03:30:47.153Z,1012.07
2019-01-19T03:31:27.778Z,1012.05
2019-01-19T03:32:08.401Z,1012.05
2019-01-19T03:32:49.008Z,1012.03
2019-01-19T03:33:29.615Z,1012.03
2019-01-19T03:34:10.219Z,1012.02
2019-01-19T03:34:50.854Z,1012.03
2019-01-19T03:35:31.474Z,1012.02
2019-01-19T03:36:12.083Z,1012.02
2019-01-19T03:36:52.699Z,1011.99
2019-01-19T03:37:33.307Z,1012
2019-01-19T03:38:13.921Z,1012.02
2019-01-19T03:38:54.527Z,1011.99
2019-01-19T03:39:35.137Z,1011.99
2019-01-19T03:40:15.791Z,1012
2019-01-19T03:40:56.423Z,1012.01
2019-01-19T03:41:37.035Z,1011.99
2019-01-19T03:42:17.671Z,1011.97
2019-01-19T03:42:58.284Z,1011.98
2019-01-19T03:43:38.907Z,1011.99
2019-01-19T03:44:19.549Z,1011.99
2019-01-19T03:45:00.190Z,1012
2019-01-19T03:45:40.777Z,1012
2019-01-19T03:46:21.375Z,1011.98
2019-01-19T03:47:01.993Z,1011.98
2019-01-19T03:47:42.601Z,1011.98
2019-01-19T03:48:23.197Z,1011.99
2019-01-19T03:49:03.813Z,1011.97
2019-01-19T03:49:44.431Z,1011.97
2019-01-19T03:50:25.045Z,1012
2019-01-19T03:51:05.641Z,1011.99
2019-01-19T03:51:46.256Z,1011.98
2019-01-19T03:52:26.873Z,1011.96
2019-01-19T03:53:07.507Z,1012
2019-01-19T03:53:48.128Z,1011.95
2019-01-19T03:54:28.749Z,1011.98
2019-01-19T03:55:09.367Z,1011.99
2019-01-19T03:55:49.979Z,1011.98
2019-01-19T03:56:30.591Z,1012
2019-01-19T03:57:11.215Z,1011.96
2019-01-19T03:57:51.837Z,1011.96
2019-01-19T03:58:32.451Z,1011.96
2019-01-19T03:59:13.093Z,1011.95
2019-01-19T03:59:53.698Z,1011.96
2019-01-19T04:00:34.355Z,1011.93
2019-01-19T04:01:14.915Z,1011.96
2019-01-19T04:01:55.524Z,1011.95
2019-01-19T04:02:36.157Z,1011.95
2019-01-19T04:03:16.769Z,1011.91
2019-01-19T04:03:57.369Z,1011.93
2019-01-19T04:04:37.997Z,1011.95
2019-01-19T04:05:18.628Z,1011.93
2019-01-19T04:05:59.241Z,1011.93
2019-01-19T04:06:39.867Z,1011.92
2019-01-19T04:07:20.479Z,1011.9
2019-01-19T04:08:01.095Z,1011.89
2019-01-19T04:08:41.711Z,1011.88
2019-01-19T04:09:22.335Z,1011.89
2019-01-19T04:10:02.955Z,1011.9
2019-01-19T04:10:43.582Z,1011.87
2019-01-19T04:11:24.187Z,1011.89
2019-01-19T04:12:04.847Z,1011.89
2019-01-19T04:12:45.493Z,1011.87
2019-01-19T04:13:26.115Z,1011.89
2019-01-19T04:14:06.729Z,1011.92
2019-01-19T04:14:47.337Z,1011.91
2019-01-19T04:15:27.949Z,1011.92
2019-01-19T04:16:08.569Z,1011.91
2019-01-19T04:16:49.185Z,1011.87
2019-01-19T04:17:29.783Z,1011.95
2019-01-19T04:18:10.387Z,1011.89
2019-01-19T04:18:51.027Z,1011.93
2019-01-19T04:19:31.647Z,1011.93
2019-01-19T04:20:12.293Z,1011.9
2019-01-19T04:20:52.938Z,1011.91
2019-01-19T04:21:33.559Z,1011.91
2019-01-19T04:22:14.191Z,1011.94
2019-01-19T04:22:54.821Z,1011.93
2019-01-19T04:23:35.449Z,1011.92
2019-01-19T04:24:16.069Z,1011.91
2019-01-19T04:24:56.701Z,1011.92
2019-01-19T04:25:37.381Z,1011.89
2019-01-19T04:26:17.985Z,1011.88
2019-01-19T04:26:59.281Z,1011.85
2019-01-19T04:27:39.900Z,1011.83
2019-01-19T04:28:20.522Z,1011.84
2019-01-19T04:29:01.218Z,1011.86
2019-01-19T04:29:41.964Z,1011.81
2019-01-19T04:30:22.571Z,1011.88
2019-01-19T04:31:03.177Z,1011.85
2019-01-19T04:31:43.852Z,1011.86
2019-01-19T04:32:24.712Z,1011.86
2019-01-19T04:33:05.249Z,1011.89
2019-01-19T04:33:45.867Z,1011.88
2019-01-19T04:34:26.496Z,1011.87
2019-01-19T04:35:07.243Z,1011.85
2019-01-19T04:35:47.853Z,1011.84
2019-01-19T04:36:28.475Z,1011.83
2019-01-19T04:37:09.069Z,1011.86
2019-01-19T04:37:49.678Z,1011.83
2019-01-19T04:38:30.277Z,1011.88
2019-01-19T04:39:10.873Z,1011.84
2019-01-19T04:39:51.527Z,1011.84
2019-01-19T04:40:32.131Z,1011.86
2019-01-19T04:41:12.733Z,1011.85
2019-01-19T04:41:53.355Z,1011.87
2019-01-19T04:42:33.964Z,1011.87
2019-01-19T04:43:14.577Z,1011.86
2019-01-19T04:43:55.173Z,1011.86
2019-01-19T04:44:35.788Z,1011.86
2019-01-19T04:45:16.381Z,1011.9
2019-01-19T04:45:56.988Z,1011.9
2019-01-19T04:46:37.611Z,1011.91
2019-01-19T04:47:18.328Z,1011.93
2019-01-19T04:47:59.020Z,1011.93
2019-01-19T04:48:39.649Z,1011.93
2019-01-19T04:49:20.291Z,1011.93
2019-01-19T04:50:00.919Z,1011.93
2019-01-19T04:50:41.529Z,1011.93
2019-01-19T04:51:22.154Z,1011.93
2019-01-19T04:52:02.765Z,1011.9
2019-01-19T04:52:43.362Z,1011.93
2019-01-19T04:53:23.991Z,1011.89
2019-01-19T04:54:04.623Z,1011.88
2019-01-19T04:54:45.265Z,1011.89
2019-01-19T04:55:25.864Z,1011.89
2019-01-19T04:56:06.471Z,1011.89
2019-01-19T04:56:47.102Z,1011.89
2019-01-19T04:57:27.694Z,1011.88
2019-01-19T04:58:08.297Z,1011.9
2019-01-19T04:58:48.937Z,1011.89
2019-01-19T04:59:29.527Z,1011.88
2019-01-19T05:00:10.154Z,1011.9
2019-01-19T05:00:50.789Z,1011.92
2019-01-19T05:01:31.398Z,1011.92
2019-01-19T05:02:12.059Z,1011.9
2019-01-19T05:02:52.650Z,1011.95
2019-01-19T05:03:33.360Z,1011.94
2019-01-19T05:04:13.914Z,1011.92
2019-01-19T05:04:54.513Z,1011.97
2019-01-19T05:05:35.126Z,1011.99
2019-01-19T05:06:15.753Z,1011.95
2019-01-19T05:06:56.391Z,1011.96
2019-01-19T05:07:36.995Z,1011.96
2019-01-19T05:08:17.599Z,1011.93
2019-01-19T05:08:58.421Z,1011.92
2019-01-19T05:09:39.045Z,1011.91
2019-01-19T05:10:19.657Z,1011.91
2019-01-19T05:11:00.288Z,1011.91
2019-01-19T05:11:40.901Z,1011.94
2019-01-19T05:12:21.555Z,1011.91
2019-01-19T05:13:02.208Z,1011.91
2019-01-19T05:13:42.959Z,1011.92
2019-01-19T05:14:23.578Z,1011.89
2019-01-19T05:15:04.203Z,1011.88
2019-01-19T05:15:44.806Z,1011.9
2019-01-19T05:16:25.415Z,1011.89
2019-01-19T05:17:06.019Z,1011.93
2019-01-19T05:17:46.631Z,1011.88
2019-01-19T05:18:27.229Z,1011.86
2019-01-19T05:19:07.837Z,1011.88
2019-01-19T05:19:48.444Z,1011.86
2019-01-19T05:20:29.066Z,1011.89
2019-01-19T05:21:09.666Z,1011.87
2019-01-19T05:21:50.269Z,1011.88
2019-01-19T05:22:30.886Z,1011.89
2019-01-19T05:23:11.496Z,1011.85
2019-01-19T05:23:52.208Z,1011.86
2019-01-19T05:24:32.827Z,1011.87
2019-01-19T05:25:13.437Z,1011.85
2019-01-19T05:25:54.047Z,1011.88
2019-01-19T05:26:34.647Z,1011.87
2019-01-19T05:27:15.269Z,1011.91
2019-01-19T05:27:55.891Z,1011.91
2019-01-19T05:28:36.504Z,1011.88
2019-01-19T05:29:17.111Z,1011.88
2019-01-19T05:29:57.751Z,1011.94
2019-01-19T05:30:38.457Z,1011.95
2019-01-19T05:31:19.074Z,1011.93
2019-01-19T05:31:59.667Z,1011.94
2019-01-19T05:32:40.315Z,1011.95
2019-01-19T05:33:20.953Z,1011.94
2019-01-19T05:34:01.818Z,1011.95
2019-01-19T05:34:42.423Z,1011.95
2019-01-19T05:35:23.023Z,1011.94
2019-01-19T05:36:03.634Z,1011.94
2019-01-19T05:36:44.248Z,1011.92
2019-01-19T05:37:24.916Z,1011.96
2019-01-19T05:38:05.835Z,1011.91
2019-01-19T05:38:46.484Z,1011.91
2019-01-19T05:39:27.035Z,1011.95
2019-01-19T05:40:07.645Z,1011.91
2019-01-19T05:40:48.270Z,1011.92
2019-01-19T05:41:28.885Z,1011.94
2019-01-19T05:42:09.514Z,1011.93
2019-01-19T05:42:50.120Z,1011.92
2019-01-19T05:43:30.739Z,1011.95
2019-01-19T05:44:11.395Z,1011.93
2019-01-19T05:44:52.042Z,1011.93
2019-01-19T05:45:32.639Z,1011.9
2019-01-19T05:46:21.186Z,1011.89
2019-01-19T05:46:53.884Z,1011.91
2019-01-19T05:47:34.483Z,1011.88
2019-01-19T05:48:15.377Z,1011.91
2019-01-19T05:48:55.991Z,1011.9
2019-01-19T05:49:36.595Z,1011.91
2019-01-19T05:50:17.260Z,1011.88
2019-01-19T05:50:57.864Z,1011.89
2019-01-19T05:51:38.486Z,1011.91
2019-01-19T05:52:19.130Z,1011.93
2019-01-19T05:52:59.740Z,1011.95
2019-01-19T05:53:40.348Z,1011.97
2019-01-19T05:54:20.968Z,1011.94
2019-01-19T05:55:01.569Z,1011.95
2019-01-19T05:55:42.188Z,1011.95
2019-01-19T05:56:22.829Z,1011.97
2019-01-19T05:57:03.430Z,1011.94
2019-01-19T05:57:44.025Z,1011.97
2019-01-19T05:58:24.628Z,1011.94
2019-01-19T05:59:05.237Z,1011.94
2019-01-19T05:59:45.835Z,1011.94
2019-01-19T06:00:26.468Z,1011.97
2019-01-19T06:01:07.105Z,1011.97
2019-01-19T06:01:47.716Z,1011.96
2019-01-19T06:02:28.326Z,1011.98
2019-01-19T06:03:08.944Z,1011.96
2019-01-19T06:03:49.560Z,1011.94
2019-01-19T06:04:30.165Z,1011.95
2019-01-19T06:05:10.784Z,1011.95
2019-01-19T06:05:51.389Z,1012.02
2019-01-19T06:06:32.003Z,1011.97
2019-01-19T06:07:12.618Z,1012
2019-01-19T06:07:53.221Z,1011.98
2019-01-19T06:08:33.826Z,1011.98
2019-01-19T06:09:14.423Z,1012
2019-01-19T06:09:55.047Z,1012.01
2019-01-19T06:10:35.663Z,1012.03
2019-01-19T06:11:16.302Z,1012.06
2019-01-19T06:11:56.927Z,1012.08
2019-01-19T06:12:37.528Z,1012.05
2019-01-19T06:13:18.152Z,1012.08
2019-01-19T06:13:58.764Z,1012.08
2019-01-19T06:14:39.372Z,1012.11
2019-01-19T06:15:19.978Z,1012.15
2019-01-19T06:16:00.570Z,1012.17
2019-01-19T06:16:41.186Z,1012.19
2019-01-19T06:17:21.842Z,1012.21
2019-01-19T06:18:02.532Z,1012.17
2019-01-19T06:18:43.074Z,1012.16
2019-01-19T06:19:23.700Z,1012.18
2019-01-19T06:20:04.306Z,1012.2
2019-01-19T06:20:44.902Z,1012.19
2019-01-19T06:21:25.488Z,1012.17
2019-01-19T06:22:06.112Z,1012.2
2019-01-19T06:22:46.707Z,1012.19
2019-01-19T06:23:27.322Z,1012.25
2019-01-19T06:24:07.927Z,1012.2
2019-01-19T06:24:48.556Z,1012.22
2019-01-19T06:25:29.176Z,1012.21
2019-01-19T06:26:09.796Z,1012.19
2019-01-19T06:26:50.402Z,1012.21
2019-01-19T06:27:31.074Z,1012.21
2019-01-19T06:28:11.701Z,1012.23
2019-01-19T06:28:52.402Z,1012.23
2019-01-19T06:29:33.100Z,1012.23
2019-01-19T06:30:13.734Z,1012.27
2019-01-19T06:30:54.384Z,1012.29
2019-01-19T06:31:35.072Z,1012.28
2019-01-19T06:32:15.719Z,1012.28
2019-01-19T06:32:56.400Z,1012.32
2019-01-19T06:33:37.150Z,1012.3
2019-01-19T06:34:17.772Z,1012.29
2019-01-19T06:34:58.414Z,1012.33
2019-01-19T06:35:39.114Z,1012.31
2019-01-19T06:36:19.872Z,1012.28
2019-01-19T06:37:00.518Z,1012.35
2019-01-19T06:37:41.197Z,1012.29
2019-01-19T06:38:21.854Z,1012.28
2019-01-19T06:39:02.511Z,1012.3
2019-01-19T06:39:43.129Z,1012.35
2019-01-19T06:40:23.782Z,1012.33
2019-01-19T06:41:04.440Z,1012.34
2019-01-19T06:41:45.207Z,1012.35
2019-01-19T06:42:25.869Z,1012.37
2019-01-19T06:43:06.579Z,1012.38
2019-01-19T06:43:47.298Z,1012.42
2019-01-19T06:44:27.876Z,1012.4
2019-01-19T06:45:08.504Z,1012.39
2019-01-19T06:45:49.146Z,1012.47
2019-01-19T06:46:29.817Z,1012.48
2019-01-19T06:47:10.514Z,1012.47
2019-01-19T06:47:51.140Z,1012.53
2019-01-19T06:48:31.772Z,1012.53
2019-01-19T06:49:12.493Z,1012.57
2019-01-19T06:49:53.112Z,1012.54
2019-01-19T06:50:33.822Z,1012.53
2019-01-19T06:51:14.439Z,1012.56
2019-01-19T06:51:55.077Z,1012.61
2019-01-19T06:52:35.825Z,1012.61
2019-01-19T06:53:16.432Z,1012.62
2019-01-19T06:54:01.441Z,1012.63
2019-01-19T06:54:37.762Z,1012.64
2019-01-19T06:55:18.388Z,1012.6
2019-01-19T06:55:58.998Z,1012.6
2019-01-19T06:56:39.660Z,1012.63
2019-01-19T06:57:20.404Z,1012.63
2019-01-19T06:58:01.014Z,1012.63
2019-01-19T06:58:41.639Z,1012.67
2019-01-19T06:59:22.276Z,1012.65
2019-01-19T07:00:02.882Z,1012.67
2019-01-19T07:00:43.580Z,1012.67
2019-01-19T07:01:24.213Z,1012.64
2019-01-19T07:02:04.881Z,1012.66
2019-01-19T07:02:45.640Z,1012.7
2019-01-19T07:03:26.312Z,1012.71
2019-01-19T07:04:07.026Z,1012.66
2019-01-19T07:04:47.688Z,1012.67
2019-01-19T07:05:28.311Z,1012.7
2019-01-19T07:06:08.936Z,1012.64
2019-01-19T07:06:49.578Z,1012.65
2019-01-19T07:07:30.384Z,1012.66
2019-01-19T07:08:10.992Z,1012.7
2019-01-19T07:08:51.611Z,1012.72
2019-01-19T07:09:32.242Z,1012.68
2019-01-19T07:10:12.912Z,1012.7
2019-01-19T07:10:53.589Z,1012.73
2019-01-19T07:11:34.434Z,1012.69
2019-01-19T07:12:15.088Z,1012.71
2019-01-19T07:12:55.738Z,1012.73
2019-01-19T07:13:36.344Z,1012.68
2019-01-19T07:14:16.957Z,1012.67
2019-01-19T07:14:57.586Z,1012.69
2019-01-19T07:15:38.211Z,1012.68
2019-01-19T07:16:18.811Z,1012.69
2019-01-19T07:16:59.461Z,1012.69
2019-01-19T07:17:40.099Z,1012.68
2019-01-19T07:18:20.721Z,1012.65
2019-01-19T07:19:01.328Z,1012.68
2019-01-19T07:19:41.953Z,1012.69
2019-01-19T07:20:22.566Z,1012.66
2019-01-19T07:21:03.267Z,1012.72
2019-01-19T07:21:43.908Z,1012.7
2019-01-19T07:22:24.512Z,1012.69
2019-01-19T07:23:05.124Z,1012.7
2019-01-19T07:23:45.727Z,1012.69
2019-01-19T07:24:26.351Z,1012.68
2019-01-19T07:25:06.992Z,1012.69
2019-01-19T07:25:47.608Z,1012.7
2019-01-19T07:26:28.234Z,1012.74
2019-01-19T07:27:08.850Z,1012.72
2019-01-19T07:27:49.462Z,1012.71
2019-01-19T07:28:30.075Z,1012.72
2019-01-19T07:29:10.690Z,1012.74
2019-01-19T07:29:51.328Z,1012.72
2019-01-19T07:30:31.946Z,1012.74
2019-01-19T07:31:12.586Z,1012.74
2019-01-19T07:31:53.198Z,1012.74
2019-01-19T07:32:33.814Z,1012.74
2019-01-19T07:33:14.450Z,1012.71
2019-01-19T07:33:55.050Z,1012.7
2019-01-19T07:34:35.662Z,1012.75
2019-01-19T07:35:16.279Z,1012.69
2019-01-19T07:35:56.862Z,1012.73
2019-01-19T07:36:37.504Z,1012.73
2019-01-19T07:37:18.111Z,1012.73
2019-01-19T07:37:58.722Z,1012.77
2019-01-19T07:38:39.331Z,1012.78
2019-01-19T07:39:19.940Z,1012.74
2019-01-19T07:40:00.534Z,1012.77
2019-01-19T07:40:41.158Z,1012.77
2019-01-19T07:41:21.770Z,1012.78
2019-01-19T07:42:02.376Z,1012.83
2019-01-19T07:42:42.986Z,1012.82
2019-01-19T07:43:23.600Z,1012.81
2019-01-19T07:44:04.211Z,1012.83
2019-01-19T07:44:44.840Z,1012.85
2019-01-19T07:45:25.491Z,1012.8
2019-01-19T07:46:06.093Z,1012.81
2019-01-19T07:46:46.698Z,1012.84
2019-01-19T07:47:27.335Z,1012.86
2019-01-19T07:48:07.960Z,1012.84
2019-01-19T07:48:48.629Z,1012.87
2019-01-19T07:49:29.262Z,1012.87
2019-01-19T07:50:09.862Z,1012.87
2019-01-19T07:50:50.470Z,1012.88
2019-01-19T07:51:31.084Z,1012.88
2019-01-19T07:52:11.750Z,1012.9
2019-01-19T07:52:52.422Z,1012.89
2019-01-19T07:53:33.028Z,1012.95
2019-01-19T07:54:13.639Z,1012.93
2019-01-19T07:54:54.242Z,1012.91
2019-01-19T07:55:34.840Z,1012.91
2019-01-19T07:56:15.430Z,1012.95
2019-01-19T07:56:56.146Z,1012.9
2019-01-19T07:57:36.740Z,1012.93
2019-01-19T07:58:17.363Z,1012.95
2019-01-19T07:58:57.960Z,1012.92
2019-01-19T07:59:38.568Z,1012.96
2019-01-19T08:00:19.192Z,1012.96
2019-01-19T08:00:59.818Z,1012.96
2019-01-19T08:01:40.427Z,1012.96
2019-01-19T08:02:21.068Z,1012.97
2019-01-19T08:03:01.658Z,1012.99
2019-01-19T08:03:42.276Z,1012.95
2019-01-19T08:04:22.878Z,1012.95
2019-01-19T08:05:03.488Z,1012.98
2019-01-19T08:05:44.108Z,1012.98
2019-01-19T08:06:24.716Z,1013
2019-01-19T08:07:05.314Z,1012.99
2019-01-19T08:07:45.937Z,1012.94
2019-01-19T08:08:26.972Z,1013
2019-01-19T08:09:07.194Z,1013
2019-01-19T08:09:47.848Z,1012.97
2019-01-19T08:10:28.490Z,1012.97
2019-01-19T08:11:09.137Z,1012.97
2019-01-19T08:11:49.733Z,1012.93
2019-01-19T08:12:30.348Z,1012.97
2019-01-19T08:13:10.957Z,1012.95
2019-01-19T08:13:51.554Z,1012.97
2019-01-19T08:14:32.160Z,1012.94
2019-01-19T08:15:12.772Z,1012.94
2019-01-19T08:15:53.390Z,1012.95